Kunszentmarton, Hungary
Current Conditions -  °F | °C
As of 11:15 PM on Wednesday 22 Oct 2014 (Local Time) from LHSN Reporting Station
Overcast Overcast  
Wind Chill: 43°   Ceiling: 2500
Heat Index: 48°   Visibility: 6mi
Dew Point: 41°   Wind: 11mph
Humidity: 76%   Direction: 320°NW
Pressure: 29.62"   Gusts: NA
Location:  46.84°N, 20.29°E
Report Text: LHSN 222115Z 32005MPS 9999 OVC025 09/05 Q1003 NOSIG RMK WHT
Loading
Personal Weather Stations






























Interactive Weather Map
Tropical Storm Tracking
New forecast layout! Learn more

10-Day Weather Forecast

Advertisements
Track Severe Weather on mobile